Time;durP1;ratioP1;P1;durP2;ratioP2;P2;SDS_P1;SDS_P2;PMS_P1;PMS_P2;Temp;Humidity;BMP_temperature;BMP_pressure;BME280_temperature;BME280_humidity;BME280_pressure;Samples;Min_cycle;Max_cycle;Signal;HPM_P1;HPM_P2
2023/12/18 00:00:19;;;;;;;5.35;4.40;;;7.30;78.00;;;;;;5013990;28;20037;-78
2023/12/18 00:02:45;;;;;;;4.97;3.83;;;7.30;78.00;;;;;;5015113;28;20502;-79
2023/12/18 00:05:10;;;;;;;4.57;4.00;;;7.30;78.00;;;;;;5033129;28;20076;-78
2023/12/18 00:07:36;;;;;;;5.68;3.90;;;7.30;78.00;;;;;;5015228;28;20489;-77
2023/12/18 00:10:02;;;;;;;5.05;3.80;;;7.30;78.00;;;;;;5014954;28;20029;-77
2023/12/18 00:12:28;;;;;;;5.38;4.15;;;7.30;78.00;;;;;;5013474;28;20356;-78
2023/12/18 00:14:54;;;;;;;5.65;3.90;;;7.30;78.00;;;;;;5014568;28;20033;-78
2023/12/18 00:17:19;;;;;;;6.28;4.38;;;7.30;78.00;;;;;;5014331;28;20053;-79
2023/12/18 00:19:45;;;;;;;6.25;4.57;;;7.30;78.00;;;;;;5015144;28;20040;-78
2023/12/18 00:22:13;;;;;;;6.20;4.68;;;7.30;78.00;;;;;;5014251;28;20107;-78
2023/12/18 00:24:38;;;;;;;5.50;4.38;;;7.30;78.00;;;;;;5014448;28;20084;-78
2023/12/18 00:27:04;;;;;;;5.93;4.40;;;7.30;78.00;;;;;;5014908;28;20434;-77
2023/12/18 00:29:30;;;;;;;5.38;4.20;;;7.30;78.00;;;;;;5015533;28;20060;-78
2023/12/18 00:31:56;;;;;;;6.30;4.30;;;7.30;78.10;;;;;;5018927;28;20460;-78
2023/12/18 00:34:22;;;;;;;5.75;4.20;;;7.30;78.00;;;;;;5019081;28;20028;-78
2023/12/18 00:36:48;;;;;;;5.40;4.25;;;7.30;78.00;;;;;;5018556;28;20064;-78
2023/12/18 00:39:15;;;;;;;5.43;3.92;;;7.30;78.00;;;;;;5018325;28;20468;-78
2023/12/18 00:41:42;;;;;;;5.53;4.07;;;7.30;78.00;;;;;;5036087;28;20090;-79
2023/12/18 00:44:08;;;;;;;6.22;4.50;;;7.40;78.00;;;;;;5017865;28;20033;-78
2023/12/18 00:46:33;;;;;;;6.10;4.18;;;7.40;78.00;;;;;;5035983;28;20030;-77
2023/12/18 00:48:59;;;;;;;5.72;4.72;;;7.30;77.90;;;;;;5017748;28;20124;-77
2023/12/18 00:51:25;;;;;;;6.30;4.78;;;7.40;77.90;;;;;;5018536;28;20021;-77
2023/12/18 00:53:51;;;;;;;5.03;4.13;;;7.40;77.90;;;;;;5017854;28;20462;-78
2023/12/18 00:56:17;;;;;;;5.72;4.38;;;7.40;77.90;;;;;;5034351;28;20052;-78
2023/12/18 00:58:43;;;;;;;5.82;4.60;;;7.40;77.90;;;;;;5014738;28;20046;-77
2023/12/18 01:01:10;;;;;;;6.10;4.20;;;7.40;77.80;;;;;;5017233;28;20372;-79
2023/12/18 01:03:37;;;;;;;5.68;4.43;;;7.40;77.80;;;;;;5001621;28;20053;-78
2023/12/18 01:06:05;;;;;;;6.63;4.45;;;7.40;77.80;;;;;;5018466;28;20032;-77
2023/12/18 01:08:30;;;;;;;6.43;4.70;;;7.40;77.80;;;;;;5017826;28;20177;-77
2023/12/18 01:10:56;;;;;;;6.40;4.60;;;7.40;77.80;;;;;;5017812;28;20108;-79
2023/12/18 01:13:23;;;;;;;5.80;4.50;;;7.40;77.80;;;;;;5017616;28;20034;-79
2023/12/18 01:15:49;;;;;;;6.50;4.75;;;7.40;77.80;;;;;;5018003;28;20034;-78
2023/12/18 01:18:14;;;;;;;5.22;4.20;;;7.40;77.70;;;;;;5035403;28;20143;-78
2023/12/18 01:20:40;;;;;;;6.28;4.55;;;7.40;77.70;;;;;;5018004;28;20030;-78
2023/12/18 01:23:06;;;;;;;5.68;4.40;;;7.40;77.70;;;;;;5017786;28;20033;-78
2023/12/18 01:25:32;;;;;;;5.75;4.05;;;7.40;77.60;;;;;;5016725;28;20435;-79
2023/12/18 01:27:58;;;;;;;6.55;4.30;;;7.40;77.70;;;;;;5017002;28;20060;-79
2023/12/18 01:30:24;;;;;;;5.88;4.60;;;7.40;77.70;;;;;;5035606;28;20047;-77
2023/12/18 01:32:50;;;;;;;6.30;4.78;;;7.30;77.60;;;;;;5016719;28;20033;-78
2023/12/18 01:35:16;;;;;;;6.30;4.90;;;7.40;77.60;;;;;;5017218;28;20060;-78
2023/12/18 01:37:42;;;;;;;5.82;4.40;;;7.40;77.60;;;;;;5017562;28;20030;-77
2023/12/18 01:40:08;;;;;;;7.63;5.15;;;7.40;77.60;;;;;;5017521;28;20068;-78
2023/12/18 01:42:34;;;;;;;6.15;4.38;;;7.30;77.50;;;;;;5015136;28;20037;-79
2023/12/18 01:45:00;;;;;;;6.40;4.35;;;7.30;77.60;;;;;;5017484;28;20029;-77
2023/12/18 01:47:26;;;;;;;5.20;4.47;;;7.30;77.60;;;;;;5017173;28;20037;-80
2023/12/18 01:49:52;;;;;;;5.90;4.55;;;7.30;77.70;;;;;;5016269;28;20025;-78
2023/12/18 01:52:18;;;;;;;5.82;4.80;;;7.30;77.70;;;;;;5016177;28;20479;-78
2023/12/18 01:54:46;;;;;;;6.63;4.70;;;7.30;77.70;;;;;;5034595;28;20115;-78
2023/12/18 01:57:15;;;;;;;6.18;4.70;;;7.30;77.70;;;;;;5016868;28;20061;-79
2023/12/18 01:59:41;;;;;;;5.82;4.65;;;7.30;77.70;;;;;;5034871;28;20029;-78
2023/12/18 02:02:07;;;;;;;5.47;4.40;;;7.30;77.80;;;;;;5016565;28;21535;-79
2023/12/18 02:04:33;;;;;;;5.72;4.47;;;7.30;77.80;;;;;;5016710;28;20041;-78
2023/12/18 02:07:03;;;;;;;5.25;4.72;;;7.30;77.80;;;;;;5016765;28;20025;-78
2023/12/18 02:09:29;;;;;;;5.50;4.10;;;7.30;77.80;;;;;;5016454;28;20037;-78
2023/12/18 02:11:55;;;;;;;4.60;3.70;;;7.30;77.80;;;;;;5016207;28;20026;-78
2023/12/18 02:14:21;;;;;;;5.63;4.30;;;7.30;77.70;;;;;;5016785;28;20037;-78
2023/12/18 02:16:47;;;;;;;4.90;3.78;;;7.30;77.80;;;;;;5016183;28;20025;-78
2023/12/18 02:19:25;;;;;;;5.00;3.92;;;7.30;77.80;;;;;;5034807;28;20080;-77
2023/12/18 02:21:51;;;;;;;4.88;3.53;;;7.30;77.70;;;;;;5015786;28;20124;-79
2023/12/18 02:24:18;;;;;;;5.10;3.95;;;7.30;77.80;;;;;;5016772;28;20030;-77
2023/12/18 02:26:44;;;;;;;5.22;4.13;;;7.30;77.70;;;;;;5015987;28;20034;-78
2023/12/18 02:29:10;;;;;;;4.53;3.33;;;7.30;77.70;;;;;;5016868;28;20065;-77
2023/12/18 02:31:37;;;;;;;3.78;3.22;;;7.30;77.70;;;;;;5016556;28;20083;-77
2023/12/18 02:34:03;;;;;;;4.78;3.60;;;7.30;77.80;;;;;;5016851;28;20026;-78
2023/12/18 02:36:29;;;;;;;3.78;3.40;;;7.30;77.80;;;;;;5015859;28;20021;-79
2023/12/18 02:38:55;;;;;;;5.07;3.53;;;7.30;77.70;;;;;;5016291;28;20465;-78
2023/12/18 02:41:21;;;;;;;4.43;3.58;;;7.30;77.70;;;;;;5016394;28;20033;-78
2023/12/18 02:43:46;;;;;;;4.68;3.60;;;7.30;77.60;;;;;;5016724;28;20032;-78
2023/12/18 02:46:12;;;;;;;4.00;3.38;;;7.30;77.70;;;;;;5015953;28;20080;-78
2023/12/18 02:48:38;;;;;;;4.30;3.50;;;7.30;77.70;;;;;;5015473;28;20029;-77
2023/12/18 02:51:05;;;;;;;3.75;3.13;;;7.30;77.70;;;;;;5015293;28;20022;-78
2023/12/18 02:53:30;;;;;;;5.03;3.40;;;7.30;77.80;;;;;;5015334;28;20109;-77
2023/12/18 02:55:56;;;;;;;4.65;3.50;;;7.30;77.80;;;;;;5016062;28;20525;-78
2023/12/18 02:58:22;;;;;;;3.30;3.00;;;7.30;77.70;;;;;;5033773;28;20034;-78
2023/12/18 03:00:51;;;;;;;3.45;3.15;;;7.30;77.70;;;;;;5034103;28;20057;-77
2023/12/18 03:03:17;;;;;;;3.28;2.90;;;7.30;77.80;;;;;;5016054;28;20029;-77
2023/12/18 03:05:43;;;;;;;3.38;3.03;;;7.30;77.80;;;;;;5016342;28;20184;-79
2023/12/18 03:08:09;;;;;;;3.40;3.00;;;7.30;77.90;;;;;;5016078;28;20033;-79
2023/12/18 03:10:35;;;;;;;3.60;2.92;;;7.30;77.90;;;;;;5016148;28;20460;-78
2023/12/18 03:13:00;;;;;;;2.80;2.60;;;7.30;77.90;;;;;;5016665;28;20108;-77
2023/12/18 03:15:27;;;;;;;3.63;3.10;;;7.30;77.80;;;;;;5016161;28;20382;-78
2023/12/18 03:17:53;;;;;;;3.00;2.70;;;7.30;77.80;;;;;;5033641;28;20068;-78
2023/12/18 03:20:19;;;;;;;3.17;2.88;;;7.30;77.90;;;;;;5015995;28;20053;-79
2023/12/18 03:22:44;;;;;;;3.28;2.90;;;7.30;77.80;;;;;;5015744;28;20037;-76
2023/12/18 03:25:10;;;;;;;3.38;3.08;;;7.30;77.80;;;;;;5033632;28;20037;-78
2023/12/18 03:27:36;;;;;;;3.53;3.05;;;7.30;77.90;;;;;;5016144;28;20034;-78
2023/12/18 03:30:02;;;;;;;3.10;2.78;;;7.30;77.80;;;;;;5033663;28;20460;-77
2023/12/18 03:32:28;;;;;;;2.97;2.65;;;7.30;77.90;;;;;;5015687;28;20471;-78
2023/12/18 03:34:54;;;;;;;3.00;2.70;;;7.30;77.80;;;;;;5015564;28;20025;-79
2023/12/18 03:37:20;;;;;;;3.22;2.90;;;7.30;77.80;;;;;;5015769;28;20038;-78
2023/12/18 03:39:45;;;;;;;3.13;2.65;;;7.30;77.80;;;;;;5016283;28;20043;-78
2023/12/18 03:42:12;;;;;;;3.05;2.70;;;7.30;77.80;;;;;;5015808;28;20478;-78
2023/12/18 03:44:38;;;;;;;3.20;2.90;;;7.30;77.80;;;;;;5015876;28;20112;-78
2023/12/18 03:47:04;;;;;;;3.40;2.78;;;7.30;77.70;;;;;;5033764;28;20060;-78
2023/12/18 03:49:29;;;;;;;3.28;2.78;;;7.30;77.70;;;;;;5015384;28;20022;-79
2023/12/18 03:51:55;;;;;;;3.10;2.80;;;7.30;77.80;;;;;;5015874;28;20021;-78
2023/12/18 03:54:21;;;;;;;3.03;2.72;;;7.30;77.80;;;;;;5015463;28;20379;-78
2023/12/18 03:56:47;;;;;;;3.53;3.17;;;7.30;77.80;;;;;;5015961;28;20056;-78
2023/12/18 03:59:13;;;;;;;3.10;2.80;;;7.30;77.80;;;;;;5015725;28;20123;-77
2023/12/18 04:01:39;;;;;;;3.33;3.03;;;7.30;77.80;;;;;;5015783;28;20034;-78
2023/12/18 04:04:04;;;;;;;4.15;3.05;;;7.30;77.80;;;;;;5016107;28;20391;-79
2023/12/18 04:06:30;;;;;;;3.38;3.08;;;7.30;77.80;;;;;;5020209;28;20028;-78
2023/12/18 04:08:56;;;;;;;3.95;3.35;;;7.30;77.70;;;;;;5019727;28;20457;-78
2023/12/18 04:11:22;;;;;;;4.53;3.67;;;7.30;77.70;;;;;;5019438;28;20112;-78
2023/12/18 04:13:49;;;;;;;4.25;3.50;;;7.30;77.80;;;;;;5019269;28;20080;-78
2023/12/18 04:16:15;;;;;;;4.55;3.30;;;7.30;77.80;;;;;;5019199;28;20477;-78
2023/12/18 04:18:41;;;;;;;4.57;3.80;;;7.30;77.80;;;;;;5019124;28;20116;-79
2023/12/18 04:21:07;;;;;;;4.82;3.85;;;7.30;77.90;;;;;;5019192;28;20040;-79
2023/12/18 04:23:33;;;;;;;4.38;3.40;;;7.30;77.90;;;;;;5018601;28;20045;-77
2023/12/18 04:25:58;;;;;;;4.13;3.55;;;7.30;77.90;;;;;;5019215;28;20554;-78
2023/12/18 04:28:24;;;;;;;3.58;3.05;;;7.30;77.90;;;;;;5019410;28;20099;-77
2023/12/18 04:30:50;;;;;;;5.10;3.83;;;7.40;77.90;;;;;;5019071;28;20030;-78
2023/12/18 04:33:16;;;;;;;4.95;3.60;;;7.40;77.90;;;;;;5018540;28;20064;-79
2023/12/18 04:35:42;;;;;;;5.32;3.72;;;7.30;77.80;;;;;;5019078;28;20029;-77
2023/12/18 04:38:07;;;;;;;4.78;3.85;;;7.40;77.90;;;;;;5018965;28;20092;-78
2023/12/18 04:40:33;;;;;;;4.78;3.70;;;7.30;77.90;;;;;;5018915;28;20037;-78
2023/12/18 04:42:59;;;;;;;6.25;4.00;;;7.30;77.80;;;;;;5018760;28;20037;-77
2023/12/18 04:45:25;;;;;;;5.78;4.40;;;7.30;77.90;;;;;;5018889;28;20072;-78
2023/12/18 04:47:51;;;;;;;5.78;4.38;;;7.30;78.00;;;;;;5018185;28;20109;-79
2023/12/18 04:50:17;;;;;;;5.57;4.10;;;7.40;78.00;;;;;;5018591;28;20030;-77
2023/12/18 04:52:43;;;;;;;5.22;3.97;;;7.40;78.00;;;;;;5017791;28;20025;-78
2023/12/18 04:55:09;;;;;;;4.93;3.72;;;7.30;78.00;;;;;;5017941;28;20133;-78
2023/12/18 04:57:35;;;;;;;5.45;3.95;;;7.30;77.90;;;;;;5018167;28;20139;-78
2023/12/18 05:00:02;;;;;;;5.68;4.00;;;7.40;78.00;;;;;;5018661;28;20112;-78
2023/12/18 05:02:28;;;;;;;5.95;4.50;;;7.40;78.00;;;;;;5018238;28;20030;-79
2023/12/18 05:04:54;;;;;;;5.82;4.35;;;7.40;78.00;;;;;;5018327;28;20033;-79
2023/12/18 05:07:19;;;;;;;6.28;4.70;;;7.40;78.00;;;;;;5018413;28;20034;-77
2023/12/18 05:09:45;;;;;;;5.25;4.18;;;7.40;78.00;;;;;;5018295;28;20056;-78
2023/12/18 05:12:11;;;;;;;6.07;4.40;;;7.30;78.00;;;;;;5035816;28;20033;-77
2023/12/18 05:14:37;;;;;;;5.72;4.40;;;7.40;78.50;;;;;;5017128;28;20434;-80
2023/12/18 05:17:03;;;;;;;5.90;4.28;;;7.40;77.90;;;;;;5014696;28;20025;-78
2023/12/18 05:19:28;;;;;;;6.18;4.40;;;7.40;78.00;;;;;;5035651;28;20127;-78
2023/12/18 05:21:54;;;;;;;5.63;4.38;;;7.40;77.90;;;;;;5035822;28;20033;-80
2023/12/18 05:24:20;;;;;;;6.00;4.28;;;7.40;78.00;;;;;;5015469;28;20061;-79
2023/12/18 05:26:46;;;;;;;5.68;4.40;;;7.40;78.00;;;;;;5035312;28;20072;-74
2023/12/18 05:29:12;;;;;;;6.22;4.10;;;7.40;77.90;;;;;;5035427;28;20503;-78
2023/12/18 05:31:38;;;;;;;5.70;4.70;;;7.40;77.90;;;;;;5015953;28;20022;-77
2023/12/18 05:34:03;;;;;;;6.20;4.32;;;7.40;78.00;;;;;;5017848;28;20092;-77
2023/12/18 05:36:30;;;;;;;6.57;4.70;;;7.30;77.90;;;;;;5018248;28;20025;-81
2023/12/18 05:38:56;;;;;;;7.20;5.18;;;7.40;78.00;;;;;;5035179;28;20091;-81
2023/12/18 05:41:22;;;;;;;6.57;5.03;;;7.40;78.00;;;;;;5036366;28;20029;-90
2023/12/18 05:43:47;;;;;;;5.90;4.78;;;7.30;78.00;;;;;;5038318;28;20025;-88
2023/12/18 05:46:14;;;;;;;5.78;4.38;;;7.30;78.00;;;;;;5018977;28;20037;-80
2023/12/18 05:48:39;;;;;;;7.43;4.90;;;7.30;78.00;;;;;;5017518;28;20038;-79
2023/12/18 05:51:05;;;;;;;6.75;4.80;;;7.30;78.00;;;;;;5035877;28;20037;-82
2023/12/18 05:53:31;;;;;;;7.38;5.13;;;7.40;78.00;;;;;;5016828;28;20029;-83
2023/12/18 05:55:57;;;;;;;7.57;4.90;;;7.30;78.00;;;;;;5033920;28;20495;-84
2023/12/18 05:58:23;;;;;;;6.63;4.63;;;7.40;78.10;;;;;;5034065;28;20089;-83
2023/12/18 06:00:49;;;;;;;6.15;4.80;;;7.40;78.10;;;;;;5034010;28;20112;-83
2023/12/18 06:03:14;;;;;;;6.82;5.00;;;7.40;78.10;;;;;;5034582;28;20072;-83
2023/12/18 06:05:40;;;;;;;6.63;5.20;;;7.40;78.10;;;;;;5035012;28;20032;-83
2023/12/18 06:08:06;;;;;;;6.78;4.93;;;7.40;78.00;;;;;;5036124;28;20030;-83
2023/12/18 06:10:32;;;;;;;7.05;5.15;;;7.40;78.10;;;;;;5018418;28;20035;-83
2023/12/18 06:12:57;;;;;;;6.85;5.05;;;7.40;78.10;;;;;;5035352;28;20473;-84
2023/12/18 06:15:23;;;;;;;5.97;4.80;;;7.40;78.00;;;;;;5035258;28;20494;-84
2023/12/18 06:17:49;;;;;;;6.65;4.80;;;7.40;78.10;;;;;;5035947;28;20556;-83
2023/12/18 06:20:15;;;;;;;8.43;5.63;;;7.40;78.10;;;;;;5035855;28;20045;-84
2023/12/18 06:22:40;;;;;;;6.88;4.85;;;7.40;78.10;;;;;;5035251;28;20101;-84
2023/12/18 06:25:07;;;;;;;6.30;4.78;;;7.40;78.10;;;;;;5034752;28;20025;-82
2023/12/18 06:27:32;;;;;;;6.78;4.82;;;7.40;78.10;;;;;;5034175;28;20039;-82
2023/12/18 06:29:58;;;;;;;7.25;4.70;;;7.40;78.00;;;;;;5016897;28;20025;-84
2023/12/18 06:32:24;;;;;;;7.55;5.68;;;7.40;78.00;;;;;;5034553;28;20036;-83
2023/12/18 06:34:50;;;;;;;9.30;5.78;;;7.50;78.10;;;;;;5034581;28;20059;-83
2023/12/18 06:37:16;;;;;;;7.10;5.10;;;7.50;78.00;;;;;;5017134;28;20030;-83
2023/12/18 06:39:42;;;;;;;8.43;5.65;;;7.40;78.00;;;;;;5034333;28;20022;-84
2023/12/18 06:42:08;;;;;;;9.05;6.25;;;7.40;78.00;;;;;;5016993;28;20033;-84
2023/12/18 06:44:34;;;;;;;7.68;5.38;;;7.50;78.00;;;;;;5016663;28;20451;-84
2023/12/18 06:47:00;;;;;;;7.63;5.43;;;7.50;78.00;;;;;;5035039;28;20033;-81
2023/12/18 06:49:26;;;;;;;7.28;5.28;;;7.40;78.00;;;;;;5016685;28;20083;-83
2023/12/18 06:51:52;;;;;;;7.90;5.60;;;7.40;78.00;;;;;;5034804;28;20119;-83
2023/12/18 06:54:17;;;;;;;7.75;5.40;;;7.50;78.10;;;;;;5034595;28;20032;-82
2023/12/18 06:56:43;;;;;;;7.03;5.28;;;7.50;78.10;;;;;;5033481;28;20053;-83
2023/12/18 06:59:09;;;;;;;8.10;5.25;;;7.50;78.10;;;;;;5033905;28;20056;-83
2023/12/18 07:01:36;;;;;;;9.68;6.13;;;7.50;78.00;;;;;;5033869;28;20025;-83
2023/12/18 07:04:03;;;;;;;8.65;5.88;;;7.50;78.00;;;;;;5034101;28;20058;-82
2023/12/18 07:06:29;;;;;;;8.18;5.45;;;7.50;78.00;;;;;;5034037;28;20025;-83
2023/12/18 07:08:56;;;;;;;7.93;5.60;;;7.50;77.90;;;;;;5034176;28;20036;-84
2023/12/18 07:11:21;;;;;;;9.25;6.13;;;7.50;77.90;;;;;;5034104;28;20463;-83
2023/12/18 07:13:47;;;;;;;8.13;5.65;;;7.50;77.90;;;;;;5034122;28;20029;-83
2023/12/18 07:16:20;;;;;;;7.47;5.38;;;7.50;77.90;;;;;;5033947;28;20025;-84
2023/12/18 07:18:46;;;;;;;7.53;5.45;;;7.60;78.00;;;;;;5017124;28;20033;-83
2023/12/18 07:21:12;;;;;;;8.20;5.47;;;7.50;77.90;;;;;;5034764;28;20493;-83
2023/12/18 07:23:38;;;;;;;9.00;6.00;;;7.60;77.90;;;;;;5034018;28;20018;-83
2023/12/18 07:26:05;;;;;;;8.57;5.80;;;7.60;77.90;;;;;;5016396;28;20029;-83
2023/12/18 07:28:31;;;;;;;8.10;5.75;;;7.60;77.90;;;;;;5033754;28;20036;-85
2023/12/18 07:30:57;;;;;;;6.75;5.57;;;7.60;77.90;;;;;;5033950;28;20022;-83
2023/12/18 07:33:22;;;;;;;8.15;5.85;;;7.60;77.90;;;;;;5015904;28;20036;-84
2023/12/18 07:35:48;;;;;;;7.65;5.32;;;7.60;77.80;;;;;;5033748;28;20104;-83
2023/12/18 07:38:14;;;;;;;8.15;5.50;;;7.60;77.80;;;;;;5015727;28;20033;-82
2023/12/18 07:40:40;;;;;;;8.60;5.93;;;7.70;77.80;;;;;;5018705;28;20036;-83
2023/12/18 07:43:06;;;;;;;8.57;5.55;;;7.60;77.80;;;;;;5038010;28;20029;-84
2023/12/18 07:45:31;;;;;;;7.65;5.38;;;7.70;77.80;;;;;;5038194;28;20022;-83
2023/12/18 07:47:57;;;;;;;7.85;5.65;;;7.70;77.80;;;;;;5037577;28;20040;-83
2023/12/18 07:50:23;;;;;;;8.50;5.28;;;7.60;77.80;;;;;;5038006;28;20030;-85
2023/12/18 07:52:49;;;;;;;10.27;6.40;;;7.70;77.70;;;;;;5020071;28;20053;-83
2023/12/18 07:55:14;;;;;;;9.13;5.82;;;7.60;77.70;;;;;;5037342;28;20103;-83
2023/12/18 07:57:42;;;;;;;9.13;6.18;;;7.70;77.70;;;;;;5037402;28;20566;-83
2023/12/18 08:00:08;;;;;;;8.07;5.65;;;7.70;77.70;;;;;;5020104;28;20044;-85
2023/12/18 08:02:34;;;;;;;8.98;5.90;;;7.70;77.70;;;;;;5020211;28;20029;-84
2023/12/18 08:05:00;;;;;;;9.73;5.85;;;7.60;77.70;;;;;;5020587;28;20173;-83
2023/12/18 08:07:26;;;;;;;7.93;5.47;;;7.70;77.80;;;;;;5037824;28;20493;-84
2023/12/18 08:09:52;;;;;;;8.65;5.78;;;7.70;77.80;;;;;;5037529;28;20033;-82
2023/12/18 08:12:18;;;;;;;8.02;6.05;;;7.70;77.70;;;;;;5019820;28;20029;-84
2023/12/18 08:14:44;;;;;;;9.48;6.38;;;7.70;77.70;;;;;;5037318;28;20049;-82
2023/12/18 08:17:12;;;;;;;7.90;5.82;;;7.70;77.70;;;;;;5019719;28;20057;-83
2023/12/18 08:19:38;;;;;;;9.23;6.30;;;7.70;77.60;;;;;;5019324;28;20494;-84
2023/12/18 08:22:04;;;;;;;8.48;6.05;;;7.70;77.70;;;;;;5037018;28;20030;-84
2023/12/18 08:24:29;;;;;;;8.02;5.75;;;7.70;77.60;;;;;;5039274;28;20021;-84
2023/12/18 08:26:55;;;;;;;8.30;5.70;;;7.70;77.60;;;;;;5041807;28;20025;-83
2023/12/18 08:29:21;;;;;;;9.68;6.28;;;7.80;77.60;;;;;;5019998;28;20116;-82
2023/12/18 08:31:47;;;;;;;8.95;5.80;;;7.80;77.50;;;;;;5037386;28;20512;-83
2023/12/18 08:34:13;;;;;;;8.25;5.97;;;7.80;77.60;;;;;;5036967;28;20045;-82
2023/12/18 08:36:38;;;;;;;9.30;6.25;;;7.90;77.50;;;;;;5037030;28;20053;-83
2023/12/18 08:39:08;;;;;;;8.90;6.03;;;7.90;77.40;;;;;;5018368;28;20034;-84
2023/12/18 08:41:35;;;;;;;8.63;6.00;;;7.90;77.40;;;;;;5019607;28;20430;-83
2023/12/18 08:44:01;;;;;;;8.60;5.65;;;7.90;77.40;;;;;;5019118;28;20025;-83
2023/12/18 08:46:26;;;;;;;9.10;6.57;;;7.90;77.90;;;;;;5036771;28;20172;-83
2023/12/18 08:48:52;;;;;;;10.23;6.60;;;7.90;77.30;;;;;;5036677;28;20060;-82
2023/12/18 08:51:18;;;;;;;8.77;6.05;;;7.90;77.30;;;;;;5036433;28;20032;-84
2023/12/18 08:53:44;;;;;;;9.10;6.78;;;8.00;77.30;;;;;;5036444;28;20367;-82
2023/12/18 08:56:09;;;;;;;10.40;6.65;;;7.90;77.30;;;;;;5036338;28;20424;-82
2023/12/18 08:58:37;;;;;;;8.93;6.68;;;7.90;77.20;;;;;;5036645;28;20030;-83
2023/12/18 09:01:04;;;;;;;8.70;6.57;;;7.90;77.30;;;;;;5036275;28;20026;-82
2023/12/18 09:03:35;;;;;;;10.05;6.80;;;7.90;77.30;;;;;;5036241;28;20080;-83
2023/12/18 09:06:02;;;;;;;9.73;6.43;;;7.90;77.20;;;;;;5036357;28;20033;-84
2023/12/18 09:08:28;;;;;;;9.93;6.25;;;8.00;77.20;;;;;;5035597;28;20038;-83
2023/12/18 09:10:54;;;;;;;10.15;6.38;;;8.00;77.20;;;;;;5018942;28;20382;-84
2023/12/18 09:13:20;;;;;;;10.95;6.95;;;7.90;77.10;;;;;;5038150;28;20072;-83
2023/12/18 09:15:46;;;;;;;9.50;6.22;;;8.00;77.10;;;;;;5040627;28;20029;-83
2023/12/18 09:18:11;;;;;;;9.23;6.78;;;7.90;77.10;;;;;;5020218;28;20088;-83
2023/12/18 09:20:37;;;;;;;11.50;7.63;;;8.00;77.20;;;;;;5018342;28;20030;-83
2023/12/18 09:23:08;;;;;;;11.65;7.15;;;7.90;77.70;;;;;;5035414;28;20117;-84
2023/12/18 09:25:34;;;;;;;9.95;7.05;;;8.00;77.20;;;;;;5036311;28;20084;-84
2023/12/18 09:28:00;;;;;;;11.30;7.20;;;8.00;77.20;;;;;;5036130;28;20460;-84
2023/12/18 09:30:25;;;;;;;11.82;7.53;;;8.00;77.20;;;;;;5017935;28;20025;-84
2023/12/18 09:32:51;;;;;;;10.38;7.25;;;8.00;77.20;;;;;;5018323;28;20025;-82
2023/12/18 09:35:17;;;;;;;12.10;7.70;;;8.00;77.10;;;;;;5017745;28;20507;-84
2023/12/18 09:37:43;;;;;;;10.80;7.38;;;8.00;77.10;;;;;;5035898;28;20029;-84
2023/12/18 09:40:09;;;;;;;10.65;7.70;;;8.00;77.10;;;;;;5018114;28;20041;-84
2023/12/18 09:42:35;;;;;;;10.88;7.57;;;8.00;77.10;;;;;;5036038;28;20026;-83
2023/12/18 09:45:04;;;;;;;11.70;7.70;;;8.00;77.00;;;;;;5018100;28;20025;-82
2023/12/18 09:47:29;;;;;;;10.40;7.30;;;8.00;77.00;;;;;;5036024;28;20036;-84
2023/12/18 09:49:56;;;;;;;11.38;7.30;;;8.00;77.00;;;;;;5018184;28;20025;-83
2023/12/18 09:52:23;;;;;;;11.50;7.53;;;8.00;77.00;;;;;;5017998;28;20112;-84
2023/12/18 09:54:50;;;;;;;10.63;7.43;;;8.00;77.00;;;;;;5017800;28;20060;-82
2023/12/18 09:57:19;;;;;;;11.73;8.13;;;8.00;77.00;;;;;;5035649;28;20068;-86
2023/12/18 09:59:45;;;;;;;11.63;7.20;;;8.10;77.00;;;;;;5016564;28;20041;-83
2023/12/18 10:02:12;;;;;;;11.30;7.40;;;8.10;77.00;;;;;;5034822;28;20025;-83
2023/12/18 10:04:43;;;;;;;11.63;7.38;;;8.10;77.00;;;;;;5035308;28;20096;-83
2023/12/18 10:07:08;;;;;;;10.40;6.90;;;8.10;77.00;;;;;;5035450;28;20057;-85
2023/12/18 10:09:35;;;;;;;10.98;7.70;;;8.10;77.00;;;;;;5035262;28;20471;-84
2023/12/18 10:12:03;;;;;;;9.88;7.45;;;8.10;77.00;;;;;;5035363;28;20364;-83
2023/12/18 10:14:29;;;;;;;11.85;7.45;;;8.10;76.90;;;;;;5017142;28;20108;-82
2023/12/18 10:16:55;;;;;;;12.70;7.93;;;8.10;76.90;;;;;;5017000;28;20032;-83
2023/12/18 10:19:24;;;;;;;11.77;8.07;;;8.10;76.90;;;;;;5017090;28;20419;-82
2023/12/18 10:21:50;;;;;;;12.70;8.10;;;8.10;76.90;;;;;;5035169;28;20061;-84
2023/12/18 10:24:15;;;;;;;12.30;9.05;;;8.10;77.00;;;;;;5035332;28;20526;-84
2023/12/18 10:26:41;;;;;;;12.13;8.25;;;8.10;76.90;;;;;;5034957;28;20097;-82
2023/12/18 10:29:08;;;;;;;11.35;7.35;;;8.10;76.90;;;;;;5034277;28;20029;-82
2023/12/18 10:31:34;;;;;;;10.77;8.00;;;8.10;76.90;;;;;;5034223;28;20435;-82
2023/12/18 10:34:05;;;;;;;11.70;7.80;;;8.10;76.90;;;;;;5016949;28;20379;-83
2023/12/18 10:36:35;;;;;;;12.63;7.93;;;8.10;76.90;;;;;;5017535;28;20467;-83
2023/12/18 10:39:02;;;;;;;13.27;8.15;;;8.10;76.90;;;;;;5016892;28;20422;-83
2023/12/18 10:41:34;;;;;;;11.55;7.18;;;8.10;76.90;;;;;;5034475;28;20103;-83
2023/12/18 10:44:00;;;;;;;12.63;7.75;;;8.10;76.90;;;;;;5034308;28;20104;-83
2023/12/18 10:46:27;;;;;;;10.27;7.35;;;8.20;77.00;;;;;;5034473;28;20160;-86
2023/12/18 10:48:54;;;;;;;11.05;7.50;;;8.20;76.90;;;;;;5033974;28;20026;-83
2023/12/18 10:51:22;;;;;;;11.88;7.68;;;8.20;76.90;;;;;;5034093;28;20104;-84
2023/12/18 10:53:53;;;;;;;10.43;7.38;;;8.20;76.80;;;;;;5034070;28;20026;-82
2023/12/18 10:56:23;;;;;;;10.75;7.70;;;8.20;76.80;;;;;;5034023;28;20053;-83
2023/12/18 10:58:51;;;;;;;11.27;7.57;;;8.20;76.80;;;;;;5015827;28;20195;-84
2023/12/18 11:01:19;;;;;;;10.32;7.50;;;8.20;76.80;;;;;;5016458;28;20056;-84
2023/12/18 11:03:45;;;;;;;11.02;7.15;;;8.20;76.90;;;;;;5034595;28;20112;-83
2023/12/18 11:06:13;;;;;;;9.90;7.03;;;8.30;76.90;;;;;;5016540;28;20076;-82
2023/12/18 11:08:39;;;;;;;8.60;6.40;;;8.30;76.90;;;;;;5034022;28;20554;-83
2023/12/18 11:11:06;;;;;;;9.02;6.40;;;8.30;76.80;;;;;;5034044;28;20029;-82
2023/12/18 11:14:07;;;;;;;9.55;6.72;;;8.30;76.70;;;;;;5016169;28;20033;-83
2023/12/18 11:16:50;;;;;;;9.52;6.22;;;8.30;76.70;;;;;;5034353;28;20108;-83
2023/12/18 11:19:44;;;;;;;9.65;6.22;;;8.30;76.70;;;;;;5034230;28;20030;-85
2023/12/18 11:22:10;;;;;;;9.77;6.28;;;8.30;76.70;;;;;;5015908;28;20033;-83
2023/12/18 11:24:37;;;;;;;9.40;6.75;;;8.30;76.60;;;;;;5033575;28;20490;-82
2023/12/18 11:27:07;;;;;;;8.80;6.10;;;8.30;76.70;;;;;;5033630;28;20060;-81
2023/12/18 11:29:46;;;;;;;7.82;5.65;;;8.30;76.70;;;;;;5033957;28;20026;-83
2023/12/18 11:32:45;;;;;;;8.68;5.60;;;8.20;76.70;;;;;;5000657;28;20025;-84
2023/12/18 11:35:12;;;;;;;8.60;6.03;;;8.20;76.70;;;;;;5034255;28;20024;-84
2023/12/18 11:37:49;;;;;;;7.80;6.00;;;8.20;76.80;;;;;;5015940;28;20126;-82
2023/12/18 11:40:34;;;;;;;8.82;6.47;;;8.20;76.90;;;;;;5016335;28;20034;-85
2023/12/18 11:43:00;;;;;;;7.57;5.75;;;8.10;76.80;;;;;;5033862;28;20496;-82
2023/12/18 11:45:26;;;;;;;8.77;6.20;;;8.10;77.40;;;;;;5033899;28;20030;-83
2023/12/18 11:47:53;;;;;;;7.70;6.18;;;8.10;77.00;;;;;;5038074;28;20029;-83
2023/12/18 11:50:24;;;;;;;9.07;6.47;;;8.10;77.00;;;;;;5041534;28;20112;-82
2023/12/18 11:52:56;;;;;;;8.77;6.05;;;8.10;77.00;;;;;;5039351;28;20044;-85
2023/12/18 11:55:37;;;;;;;9.23;6.00;;;8.10;77.10;;;;;;5038611;28;20045;-82
2023/12/18 11:58:04;;;;;;;7.65;5.65;;;8.10;77.50;;;;;;5037499;28;20472;-80
2023/12/18 12:00:31;;;;;;;8.00;5.65;;;8.10;77.80;;;;;;5017203;28;20033;-80
2023/12/18 12:03:03;;;;;;;9.32;5.57;;;8.10;77.70;;;;;;5011960;28;20037;-77
2023/12/18 12:05:33;;;;;;;9.32;6.50;;;8.10;77.80;;;;;;5029098;28;20021;-84
2023/12/18 12:08:02;;;;;;;9.00;6.07;;;8.10;77.80;;;;;;5033281;28;20407;-80
2023/12/18 12:10:28;;;;;;;7.28;5.63;;;8.20;77.80;;;;;;5033926;28;20430;-83
2023/12/18 12:12:57;;;;;;;9.15;6.15;;;8.20;77.80;;;;;;5032812;28;20029;-79
2023/12/18 12:15:24;;;;;;;9.93;6.88;;;8.20;77.60;;;;;;5033491;28;20088;-89
2023/12/18 12:18:05;;;;;;;8.88;6.63;;;8.20;77.60;;;;;;5038800;28;20055;-89
2023/12/18 12:20:32;;;;;;;8.98;6.38;;;8.20;77.60;;;;;;5014887;28;20030;-76
2023/12/18 12:22:58;;;;;;;9.90;6.70;;;8.10;77.60;;;;;;5014827;28;20076;-79
2023/12/18 12:25:24;;;;;;;9.98;6.80;;;8.10;77.60;;;;;;5034541;28;20029;-80
2023/12/18 12:27:50;;;;;;;9.50;6.82;;;8.10;77.60;;;;;;5023981;28;20029;-77
2023/12/18 12:30:17;;;;;;;9.45;7.13;;;8.10;77.60;;;;;;5036159;28;20059;-80
2023/12/18 12:32:44;;;;;;;11.50;7.57;;;8.10;77.60;;;;;;5036448;28;20032;-83
2023/12/18 12:35:11;;;;;;;11.18;7.57;;;8.10;77.60;;;;;;5035683;28;20490;-83
2023/12/18 12:37:37;;;;;;;9.73;6.82;;;8.10;77.60;;;;;;5020355;28;20073;-84
2023/12/18 12:40:07;;;;;;;11.20;7.45;;;8.00;77.60;;;;;;5037317;28;20021;-86
2023/12/18 12:42:37;;;;;;;10.38;7.25;;;8.00;77.60;;;;;;5037213;28;20026;-84
2023/12/18 12:45:04;;;;;;;10.27;7.32;;;8.00;77.70;;;;;;5019132;28;20053;-79
2023/12/18 12:47:30;;;;;;;10.20;7.40;;;8.00;77.70;;;;;;5036251;28;20025;-80
2023/12/18 12:50:04;;;;;;;11.70;8.43;;;8.10;77.70;;;;;;5035398;28;20088;-80
2023/12/18 12:52:30;;;;;;;;;;;8.00;77.70;;;;;;5036123;28;20018;-81